Time;durP1;ratioP1;P1;durP2;ratioP2;P2;SDS_P1;SDS_P2;PMS_P1;PMS_P2;Temp;Humidity;BMP_temperature;BMP_pressure;BME280_temperature;BME280_humidity;BME280_pressure;Samples;Min_cycle;Max_cycle;Signal;HPM_P1;HPM_P2
2023/05/13 00:00:54;;;;;;;;;3.00;3.00;;;;;21.90;42.49;101216.09;5077546;27;56232;-71
2023/05/13 00:03:19;;;;;;;;;4.25;3.25;;;;;21.87;42.57;101205.63;5078041;27;53686;-71
2023/05/13 00:05:44;;;;;;;;;5.25;3.00;;;;;21.88;42.31;101208.19;5076019;27;45439;-71
2023/05/13 00:08:10;;;;;;;;;3.50;3.50;;;;;21.89;42.22;101219.72;5073455;27;50154;-71
2023/05/13 00:10:36;;;;;;;;;4.75;2.75;;;;;21.89;42.32;101217.06;5060874;28;45415;-71
2023/05/13 00:13:01;;;;;;;;;3.75;3.00;;;;;21.86;42.31;101218.09;5076521;28;53587;-71
2023/05/13 00:15:27;;;;;;;;;3.00;3.00;;;;;21.87;42.67;101225.16;5071235;28;71108;-71
2023/05/13 00:17:52;;;;;;;;;3.50;2.75;;;;;21.85;42.82;101216.41;5049187;28;63181;-71
2023/05/13 00:20:18;;;;;;;;;4.00;3.00;;;;;21.87;42.33;101217.16;5066990;28;62030;-71
2023/05/13 00:22:43;;;;;;;;;4.25;1.75;;;;;21.86;42.58;101212.78;5077011;28;45391;-71
2023/05/13 00:25:09;;;;;;;;;3.00;3.00;;;;;21.87;42.94;101218.94;5070968;28;63196;-71
2023/05/13 00:27:37;;;;;;;;;3.00;3.00;;;;;21.85;42.41;101227.06;5071111;28;45480;-71
2023/05/13 00:30:09;;;;;;;;;3.25;2.75;;;;;21.83;42.75;101222.78;5086876;27;45356;-71
2023/05/13 00:32:34;;;;;;;;;3.00;3.00;;;;;21.86;42.48;101226.09;5051849;28;45304;-71
2023/05/13 00:34:59;;;;;;;;;4.25;3.00;;;;;21.80;42.82;101219.38;5070061;27;47057;-71
2023/05/13 00:37:25;;;;;;;;;3.25;3.00;;;;;21.86;42.77;101226.09;5071009;28;45533;-71
2023/05/13 00:39:51;;;;;;;;;2.75;2.75;;;;;21.85;42.44;101227.06;5059523;28;45441;-71
2023/05/13 00:42:16;;;;;;;;;3.00;3.00;;;;;21.85;42.70;101219.06;5072143;28;45609;-71
2023/05/13 00:44:42;;;;;;;;;2.25;1.75;;;;;21.83;42.65;101222.78;5089025;27;45451;-71
2023/05/13 00:47:12;;;;;;;;;4.00;3.25;;;;;21.85;42.37;101224.41;5072720;27;46931;-71
2023/05/13 00:49:38;;;;;;;;;3.25;3.25;;;;;21.82;42.79;101227.25;5072147;28;45938;-71
2023/05/13 00:52:04;;;;;;;;;6.25;3.75;;;;;21.81;42.24;101225.53;5066705;28;45292;-71
2023/05/13 00:54:29;;;;;;;;;4.00;3.00;;;;;21.84;42.53;101230.66;5064802;28;49701;-71
2023/05/13 00:56:55;;;;;;;;;5.50;4.00;;;;;21.83;42.58;101226.28;5072752;27;51670;-71
2023/05/13 00:59:28;;;;;;;;;3.00;3.00;;;;;21.84;42.74;101233.34;5056809;28;45935;-71
2023/05/13 01:02:15;;;;;;;;;2.25;2.25;;;;;21.84;42.74;101229.84;5053147;28;45751;-71
2023/05/13 01:04:43;;;;;;;;;3.00;3.00;;;;;21.82;42.25;101229.09;5069970;27;45313;-71
2023/05/13 01:07:40;;;;;;;;;3.00;3.00;;;;;21.84;42.81;101227.16;5074020;28;45400;-71
2023/05/13 01:10:12;;;;;;;;;4.50;3.00;;;;;21.81;42.78;101225.53;5072543;27;45405;-71
2023/05/13 01:12:39;;;;;;;;;2.75;2.75;;;;;21.81;42.71;101228.22;5076276;28;45361;-71
2023/05/13 01:15:08;;;;;;;;;2.00;2.00;;;;;21.81;42.51;101228.22;5070871;27;45804;-71
2023/05/13 01:17:43;;;;;;;;;2.25;2.25;;;;;21.82;42.46;101231.75;5058576;28;47324;-71
2023/05/13 01:20:10;;;;;;;;;2.00;2.00;;;;;21.80;42.88;101230.03;5071141;27;45386;-71
2023/05/13 01:22:35;;;;;;;;;3.25;2.00;;;;;21.81;42.36;101236.19;5072238;28;45578;-71
2023/05/13 01:25:01;;;;;;;;;3.25;2.00;;;;;21.78;42.52;101221.28;5072219;28;45385;-71
2023/05/13 01:27:26;;;;;;;;;3.50;3.50;;;;;21.79;42.43;101224.78;5070904;28;46311;-71
2023/05/13 01:29:53;;;;;;;;;3.00;3.00;;;;;21.79;42.99;101228.31;5066582;28;45398;-71
2023/05/13 01:32:19;;;;;;;;;2.00;2.00;;;;;21.75;42.82;101221.47;5068108;27;45511;-71
2023/05/13 01:34:45;;;;;;;;;5.25;2.25;;;;;21.79;42.52;101232.78;5066726;28;65873;-71
2023/05/13 01:37:10;;;;;;;;;2.25;2.25;;;;;21.77;42.69;101230.22;5059078;28;71585;-71
2023/05/13 01:39:37;;;;;;;;;2.00;2.00;;;;;21.74;42.74;101219.78;5054968;28;47478;-71
2023/05/13 01:42:02;;;;;;;;;3.50;2.00;;;;;21.79;42.43;101233.63;5086845;27;45411;-71
2023/05/13 01:44:27;;;;;;;;;2.00;1.75;;;;;21.78;42.86;101245.25;5065750;28;45606;-71
2023/05/13 01:46:53;;;;;;;;;4.00;3.00;;;;;21.76;42.47;101231.19;5067959;28;53005;-71
2023/05/13 01:49:18;;;;;;;;;2.50;2.50;;;;;21.76;42.54;101236.53;5077117;28;71472;-71
2023/05/13 01:51:43;;;;;;;;;2.75;2.00;;;;;21.76;42.96;101238.31;5085944;27;66056;-71
2023/05/13 01:54:09;;;;;;;;;3.00;3.00;;;;;21.77;42.52;101240.03;5067410;28;45157;-71
2023/05/13 01:56:34;;;;;;;;;3.00;2.00;;;;;21.76;42.79;101239.19;5070340;28;47580;-71
2023/05/13 01:59:00;;;;;;;;;3.00;3.00;;;;;21.76;43.10;101235.66;5055262;28;45868;-71
2023/05/13 02:01:25;;;;;;;;;2.50;1.50;;;;;21.75;42.75;101242.78;5068861;28;45457;-71
2023/05/13 02:03:51;;;;;;;;;4.00;3.75;;;;;21.77;42.58;101242.69;5062481;28;45295;-71
2023/05/13 02:06:16;;;;;;;;;2.75;2.75;;;;;21.74;42.65;101238.44;5071314;28;69048;-71
2023/05/13 02:08:41;;;;;;;;;2.25;1.25;;;;;21.76;42.55;101243.63;5075116;27;45330;-71
2023/05/13 02:11:07;;;;;;;;;6.00;4.50;;;;;21.76;42.70;101249.84;5080388;28;45474;-71
2023/05/13 02:13:33;;;;;;;;;3.75;3.00;;;;;21.74;43.14;101241.09;5077325;27;45232;-71
2023/05/13 02:15:58;;;;;;;;;2.00;2.00;;;;;21.73;42.84;101235.88;5057207;28;46087;-71
2023/05/13 02:18:23;;;;;;;;;0.75;0.75;;;;;21.73;42.76;101235.88;5080443;27;45599;-71
2023/05/13 02:20:49;;;;;;;;;2.25;2.25;;;;;21.73;42.76;101231.38;5079501;27;45427;-71
2023/05/13 02:23:15;;;;;;;;;2.75;2.75;;;;;21.75;43.00;101239.28;5075724;28;45363;-71
2023/05/13 02:25:41;;;;;;;;;2.00;2.00;;;;;21.71;42.56;101235.97;5068966;27;45617;-71
2023/05/13 02:28:07;;;;;;;;;3.00;3.00;;;;;21.74;42.80;101248.22;5074257;27;45429;-71
2023/05/13 02:30:32;;;;;;;;;2.00;2.00;;;;;21.74;42.82;101240.22;5072181;27;45446;-71
2023/05/13 02:32:57;;;;;;;;;3.00;2.25;;;;;21.73;42.71;101244.72;5085721;27;45595;-71
2023/05/13 02:35:24;;;;;;;;;2.00;2.00;;;;;21.72;43.06;101242.16;5074365;27;46269;-71
2023/05/13 02:37:49;;;;;;;;;4.25;3.00;;;;;21.70;42.74;101233.41;5071847;28;45507;-71
2023/05/13 02:40:15;;;;;;;;;4.75;4.75;;;;;21.73;43.01;101241.19;5061003;28;58535;-71
2023/05/13 02:42:42;;;;;;;;;5.00;3.00;;;;;21.73;42.83;101238.53;5060706;28;45542;-71
2023/05/13 02:45:08;;;;;;;;;5.00;2.75;;;;;21.71;43.18;101229.75;5066689;27;46173;-71
2023/05/13 02:47:33;;;;;;;;;4.25;3.00;;;;;21.72;42.91;101231.50;5078256;27;45521;-71
2023/05/13 02:49:59;;;;;;;;;4.25;3.75;;;;;21.71;43.03;101221.78;5088282;27;45676;-71
2023/05/13 02:52:24;;;;;;;;;3.00;3.00;;;;;21.72;42.63;101224.34;5071717;27;45530;-71
2023/05/13 02:54:50;;;;;;;;;3.00;3.00;;;;;21.72;43.03;101228.81;5068524;27;45486;-71
2023/05/13 02:57:15;;;;;;;;;5.25;4.25;;;;;21.72;43.25;101239.47;5074511;27;56695;-71
2023/05/13 02:59:40;;;;;;;;;3.75;2.75;;;;;21.73;43.11;101238.53;5076323;27;45487;-71
2023/05/13 03:02:06;;;;;;;;;2.00;2.00;;;;;21.69;42.70;101237.00;5075446;27;45526;-71
2023/05/13 03:04:31;;;;;;;;;2.75;2.25;;;;;21.70;42.61;101230.75;5071793;27;65410;-71
2023/05/13 03:06:56;;;;;;;;;3.25;3.00;;;;;21.71;42.63;101238.63;5056891;28;68258;-71
2023/05/13 03:09:22;;;;;;;;;5.00;4.00;;;;;21.71;42.74;101246.63;5073642;27;52076;-71
2023/05/13 03:11:47;;;;;;;;;3.50;2.50;;;;;21.70;43.06;101238.72;5075342;28;58797;-71
2023/05/13 03:14:12;;;;;;;;;4.00;3.00;;;;;21.69;42.83;101234.34;5063048;28;46854;-71
2023/05/13 03:16:38;;;;;;;;;3.75;3.00;;;;;21.69;43.15;101245.88;5067519;27;45718;-71
2023/05/13 03:19:03;;;;;;;;;5.50;4.25;;;;;21.70;43.12;101244.06;5071678;27;45410;-71
2023/05/13 03:21:29;;;;;;;;;3.00;3.00;;;;;21.69;42.86;101234.34;5083448;27;45308;-71
2023/05/13 03:23:54;;;;;;;;;3.50;3.50;;;;;21.69;42.67;101242.34;5069365;27;46167;-71
2023/05/13 03:26:20;;;;;;;;;3.00;3.00;;;;;21.68;42.70;101243.31;5072193;27;45337;-71
2023/05/13 03:28:45;;;;;;;;;3.00;3.00;;;;;21.68;43.25;101238.81;5067241;28;45421;-71
2023/05/13 03:31:11;;;;;;;;;3.25;3.25;;;;;21.68;43.05;101236.16;5069394;27;51552;-71
2023/05/13 03:33:37;;;;;;;;;3.50;3.50;;;;;21.68;42.81;101240.66;5076869;28;46373;-71
2023/05/13 03:36:03;;;;;;;;;3.50;3.50;;;;;21.69;42.86;101245.00;5060060;28;45207;-71
2023/05/13 03:38:28;;;;;;;;;3.75;2.25;;;;;21.68;43.05;101249.47;5076130;27;45296;-71
2023/05/13 03:40:53;;;;;;;;;3.25;3.25;;;;;21.67;43.11;101246.91;5074228;28;45410;-71
2023/05/13 03:43:19;;;;;;;;;4.00;4.00;;;;;21.68;42.81;101249.47;5057544;27;48002;-71
2023/05/13 03:45:47;;;;;;;;;5.50;4.00;;;;;21.68;43.33;101249.47;5072011;28;45335;-71
2023/05/13 03:48:13;;;;;;;;;4.75;3.25;;;;;21.69;42.96;101253.00;5077370;27;45289;-71
2023/05/13 03:50:39;;;;;;;;;4.50;2.75;;;;;21.67;43.32;101246.91;5069595;27;45425;-71
2023/05/13 03:53:04;;;;;;;;;4.25;4.00;;;;;21.65;42.68;101252.34;5073599;28;45271;-71
2023/05/13 03:55:29;;;;;;;;;4.75;4.75;;;;;21.67;43.21;101254.91;5069737;27;45338;-71
2023/05/13 03:57:55;;;;;;;;;5.00;4.00;;;;;21.68;43.46;101254.81;5066562;27;45404;-71
2023/05/13 04:00:20;;;;;;;;;4.00;4.00;;;;;21.63;43.20;101248.09;5072534;27;65352;-71
2023/05/13 04:02:45;;;;;;;;;7.25;5.00;;;;;21.64;43.36;101252.44;5065699;27;47380;-71
2023/05/13 04:05:12;;;;;;;;;3.75;3.75;;;;;21.67;42.79;101257.56;5075651;27;61137;-71
2023/05/13 04:07:38;;;;;;;;;11.50;5.75;;;;;21.66;43.38;101261.22;5069212;27;45335;-71
2023/05/13 04:10:03;;;;;;;;;5.00;5.00;;;;;21.66;43.00;101263.88;5072341;27;45391;-70
2023/05/13 04:12:29;;;;;;;;;6.00;6.00;;;;;21.66;43.10;101271.88;5071959;27;46028;-71
2023/05/13 04:14:55;;;;;;;;;4.25;4.25;;;;;21.65;43.38;101260.31;5062197;27;45359;-71
2023/05/13 04:17:20;;;;;;;;;4.25;4.25;;;;;21.65;42.86;101267.47;5053093;28;45461;-71
2023/05/13 04:19:45;;;;;;;;;6.75;6.00;;;;;21.65;43.12;101273.66;5061132;28;45446;-71
2023/05/13 04:22:11;;;;;;;;;7.00;5.00;;;;;21.66;42.96;101274.53;5055511;28;73682;-71
2023/05/13 04:24:36;;;;;;;;;5.25;4.75;;;;;21.64;42.80;101274.63;5056104;28;68581;-71
2023/05/13 04:27:02;;;;;;;;;5.50;5.50;;;;;21.64;43.35;101282.63;5069602;28;45465;-71
2023/05/13 04:29:27;;;;;;;;;8.50;6.50;;;;;21.65;43.12;101286.97;5067896;27;45494;-71
2023/05/13 04:31:53;;;;;;;;;7.00;5.75;;;;;21.62;43.05;101281.88;5073352;27;49188;-71
2023/05/13 04:34:18;;;;;;;;;7.25;7.00;;;;;21.64;43.08;101284.41;5065662;27;45341;-71
2023/05/13 04:36:45;;;;;;;;;7.25;6.75;;;;;21.64;42.99;101287.94;5064551;27;46027;-71
2023/05/13 04:39:10;;;;;;;;;9.25;7.00;;;;;21.62;43.03;101268.53;5064386;28;45243;-71
2023/05/13 04:41:35;;;;;;;;;7.00;7.00;;;;;21.63;42.87;101282.72;5084409;27;47091;-71
2023/05/13 04:44:01;;;;;;;;;7.50;7.00;;;;;21.64;42.87;101287.06;5078146;27;67318;-71
2023/05/13 04:46:26;;;;;;;;;9.25;8.00;;;;;21.63;43.45;101277.38;5070313;28;45571;-71
2023/05/13 04:48:52;;;;;;;;;7.25;7.00;;;;;21.61;42.96;101278.31;5083706;27;57693;-71
2023/05/13 04:51:17;;;;;;;;;7.00;5.50;;;;;21.61;42.83;101286.31;5067500;28;65279;-71
2023/05/13 04:53:42;;;;;;;;;8.75;7.75;;;;;21.61;43.21;101288.13;5066959;27;45313;-71
2023/05/13 04:56:08;;;;;;;;;8.00;7.00;;;;;21.62;43.03;101289.84;5068604;28;62866;-71
2023/05/13 04:58:33;;;;;;;;;10.00;7.50;;;;;21.62;43.13;101300.50;5068425;28;45584;-71
2023/05/13 05:00:59;;;;;;;;;9.25;8.25;;;;;21.61;42.89;101306.78;5076447;27;63526;-71
2023/05/13 05:03:24;;;;;;;;;10.00;9.00;;;;;21.61;43.20;101299.63;5066759;28;45299;-71
2023/05/13 05:05:50;;;;;;;;;9.25;8.50;;;;;21.62;43.42;101303.16;5065114;27;67615;-71
2023/05/13 05:08:15;;;;;;;;;11.50;8.75;;;;;21.60;43.26;101307.72;5072026;28;68095;-71
2023/05/13 05:10:41;;;;;;;;;10.50;8.50;;;;;21.59;43.49;101306.03;5068812;27;46975;-71
2023/05/13 05:13:06;;;;;;;;;10.75;8.00;;;;;21.58;43.70;101310.50;5074790;27;45292;-71
2023/05/13 05:15:31;;;;;;;;;8.75;8.50;;;;;21.60;43.26;101307.72;5072189;28;67864;-71
2023/05/13 05:17:57;;;;;;;;;11.25;9.25;;;;;21.58;43.12;101315.84;5069580;27;62917;-71
2023/05/13 05:20:23;;;;;;;;;10.50;9.50;;;;;21.61;43.22;101320.09;5067404;28;45398;-70
2023/05/13 05:22:49;;;;;;;;;11.50;8.00;;;;;21.59;42.98;101322.84;5075407;27;45382;-71
2023/05/13 05:25:14;;;;;;;;;11.75;9.50;;;;;21.60;43.53;101329.03;5074854;28;45363;-71
2023/05/13 05:27:40;;;;;;;;;9.75;8.75;;;;;21.60;42.91;101331.69;5067753;27;45363;-71
2023/05/13 05:30:06;;;;;;;;;10.75;8.75;;;;;21.60;43.07;101334.34;5060867;28;46926;-71
2023/05/13 05:32:31;;;;;;;;;10.50;9.00;;;;;21.59;43.43;101335.31;5071996;28;45439;-71
2023/05/13 05:34:57;;;;;;;;;10.25;7.75;;;;;21.60;43.02;101345.88;5069338;27;45273;-71
2023/05/13 05:37:22;;;;;;;;;13.75;9.75;;;;;21.57;43.22;101338.09;5076121;28;45757;-71
2023/05/13 05:39:47;;;;;;;;;11.00;10.00;;;;;21.59;43.27;101343.31;5065132;28;70291;-71
2023/05/13 05:42:13;;;;;;;;;12.25;10.00;;;;;21.58;43.21;101345.13;5081910;27;70452;-71
2023/05/13 05:44:38;;;;;;;;;13.75;10.00;;;;;21.58;43.35;101338.94;5065047;27;61846;-70
2023/05/13 05:47:03;;;;;;;;;10.00;8.50;;;;;21.59;42.90;101352.16;5079439;27;73542;-71
2023/05/13 05:49:29;;;;;;;;;14.75;9.25;;;;;21.57;43.50;101351.41;5080948;27;48307;-71
2023/05/13 05:51:54;;;;;;;;;9.25;8.00;;;;;21.59;42.98;101357.47;5070399;28;57422;-71
2023/05/13 05:54:19;;;;;;;;;9.00;8.75;;;;;21.57;43.63;101359.38;5077366;27;45444;-71
2023/05/13 05:56:45;;;;;;;;;10.00;9.00;;;;;21.60;43.46;101366.31;5051498;27;45542;-71
2023/05/13 05:59:10;;;;;;;;;12.00;11.00;;;;;21.57;43.28;101366.53;5068535;27;45484;-70
2023/05/13 06:01:35;;;;;;;;;10.25;10.25;;;;;21.59;43.15;101373.47;5071662;27;53293;-71
2023/05/13 06:04:05;;;;;;;;;9.00;8.25;;;;;21.58;42.92;101370.88;5078836;27;45433;-71
2023/05/13 06:06:31;;;;;;;;;10.00;9.00;;;;;21.57;43.48;101382.50;5079604;28;45498;-71
2023/05/13 06:08:56;;;;;;;;;7.50;7.50;;;;;21.55;43.09;101376.44;5077671;27;45343;-71
2023/05/13 06:11:22;;;;;;;;;9.25;9.25;;;;;21.57;43.05;101383.34;5058747;28;74647;-71
2023/05/13 06:13:47;;;;;;;;;8.50;8.00;;;;;21.58;43.14;101384.22;5076301;27;45312;-71
2023/05/13 06:16:13;;;;;;;;;10.25;8.50;;;;;21.56;43.22;101370.97;5070376;27;45317;-71
2023/05/13 06:18:38;;;;;;;;;8.00;8.00;;;;;21.57;43.28;101386.03;5085838;27;65738;-70
2023/05/13 06:21:03;;;;;;;;;12.00;9.50;;;;;21.60;43.26;101387.63;5064025;27;45388;-71
2023/05/13 06:23:29;;;;;;;;;9.00;9.00;;;;;21.60;43.18;101388.50;5072043;27;45391;-70
2023/05/13 06:25:55;;;;;;;;;9.75;9.00;;;;;21.60;43.33;101393.81;5074858;27;45423;-70
2023/05/13 06:28:21;;;;;;;;;9.75;8.25;;;;;21.61;43.40;101397.34;5067140;27;45479;-70
2023/05/13 06:30:46;;;;;;;;;7.50;7.50;;;;;21.58;43.54;101392.19;5074430;27;58073;-71
2023/05/13 06:33:12;;;;;;;;;7.75;7.25;;;;;21.63;43.03;101398.09;5062827;28;45355;-70
2023/05/13 06:35:38;;;;;;;;;9.00;8.00;;;;;21.65;43.13;101406.00;5052877;27;45542;-70
2023/05/13 06:38:03;;;;;;;;;10.50;8.25;;;;;21.68;43.17;101413.78;5075986;27;53706;-70
2023/05/13 06:40:29;;;;;;;;;10.75;8.75;;;;;21.68;43.42;101419.13;5073838;27;45255;-70
2023/05/13 06:42:55;;;;;;;;;7.00;6.75;;;;;21.70;43.55;101411.88;5059050;28;45455;-71
2023/05/13 06:45:22;;;;;;;;;10.00;8.75;;;;;21.70;43.28;101418.06;5054862;28;45355;-71
2023/05/13 06:47:49;;;;;;;;;8.50;7.25;;;;;21.72;43.31;101421.47;5072240;28;45432;-70
2023/05/13 06:50:15;;;;;;;;;11.00;9.00;;;;;21.70;43.46;101418.06;5072827;27;45995;-71
2023/05/13 06:52:40;;;;;;;;;9.75;7.00;;;;;21.75;43.13;101412.44;5076516;27;45411;-71
2023/05/13 06:55:06;;;;;;;;;8.50;7.25;;;;;21.74;43.03;101408.94;5084543;27;45479;-71
2023/05/13 06:57:31;;;;;;;;;8.75;8.00;;;;;21.79;43.10;101416.63;5065853;27;46434;-71
2023/05/13 06:59:57;;;;;;;;;10.50;8.75;;;;;21.81;43.25;101420.03;5074042;27;45379;-71
2023/05/13 07:02:22;;;;;;;;;8.25;8.25;;;;;21.80;43.30;101421.88;5079451;27;45359;-71
2023/05/13 07:04:47;;;;;;;;;9.00;8.00;;;;;21.83;43.50;101414.63;5077591;27;65553;-71
2023/05/13 07:07:13;;;;;;;;;8.50;8.50;;;;;21.85;43.44;101415.38;5068450;28;47236;-71
2023/05/13 07:09:38;;;;;;;;;10.00;8.00;;;;;21.88;43.04;101421.38;5072164;27;62812;-71
2023/05/13 07:12:04;;;;;;;;;8.00;8.00;;;;;21.89;43.41;101416.91;5077225;27;45544;-71
2023/05/13 07:14:29;;;;;;;;;7.50;7.25;;;;;21.90;43.04;101421.28;5074501;27;45419;-71
2023/05/13 07:16:54;;;;;;;;;8.50;8.00;;;;;21.91;43.64;101420.31;5075623;27;67104;-71
2023/05/13 07:19:19;;;;;;;;;9.25;7.25;;;;;21.92;43.13;101428.22;5073098;27;68231;-71
2023/05/13 07:21:45;;;;;;;;;7.75;7.25;;;;;21.92;43.01;101430.00;5062600;27;55099;-71
2023/05/13 07:24:10;;;;;;;;;10.25;9.00;;;;;21.93;43.36;101421.94;5079420;27;65239;-71
2023/05/13 07:26:36;;;;;;;;;12.00;9.00;;;;;21.96;42.98;101427.06;5065605;28;46062;-71
2023/05/13 07:29:01;;;;;;;;;8.50;8.50;;;;;21.97;43.07;101422.59;5068543;28;45476;-70
2023/05/13 07:31:27;;;;;;;;;9.50;7.25;;;;;21.99;43.34;101426.00;5065866;27;45229;-70
2023/05/13 07:33:53;;;;;;;;;9.00;8.00;;;;;21.99;43.34;101424.22;5073381;27;45469;-71
2023/05/13 07:36:18;;;;;;;;;10.25;9.25;;;;;22.02;43.01;101423.16;5061704;28;47488;-71
2023/05/13 07:38:44;;;;;;;;;8.25;7.75;;;;;22.03;43.23;101424.00;5076769;27;45603;-70
2023/05/13 07:41:09;;;;;;;;;10.50;9.50;;;;;22.05;43.05;101419.44;5074274;27;45364;-71
2023/05/13 07:43:34;;;;;;;;;8.00;7.25;;;;;22.07;43.37;101433.53;5059434;28;45515;-71
2023/05/13 07:46:01;;;;;;;;;8.00;8.00;;;;;22.08;42.90;101433.44;5072142;28;45358;-71
2023/05/13 07:48:27;;;;;;;;;10.25;10.00;;;;;22.09;43.10;101436.94;5072523;27;45450;-71
2023/05/13 07:50:52;;;;;;;;;8.75;8.75;;;;;22.09;43.05;101440.47;5074444;27;45422;-71
2023/05/13 07:53:18;;;;;;;;;10.25;9.00;;;;;22.11;43.05;101437.69;5061113;28;45364;-71
2023/05/13 07:55:43;;;;;;;;;12.00;10.00;;;;;22.12;43.41;101442.09;5073744;27;47189;-71
2023/05/13 07:58:09;;;;;;;;;11.25;8.00;;;;;22.12;42.97;101444.75;5051297;28;45254;-71
2023/05/13 08:00:34;;;;;;;;;10.50;9.75;;;;;22.12;42.99;101450.09;5067595;27;65711;-71
2023/05/13 08:02:59;;;;;;;;;12.75;10.75;;;;;22.13;43.23;101442.00;5070731;28;45327;-71
2023/05/13 08:05:25;;;;;;;;;9.00;8.25;;;;;22.15;42.85;101452.53;5066934;28;63769;-71
2023/05/13 08:07:50;;;;;;;;;13.00;9.00;;;;;22.14;42.87;101451.69;5073947;27;45280;-71
2023/05/13 08:10:15;;;;;;;;;7.75;7.75;;;;;22.14;42.99;101442.84;5077511;27;58899;-71
2023/05/13 08:12:41;;;;;;;;;14.50;11.50;;;;;22.16;43.14;101444.44;5073356;27;45377;-71
2023/05/13 08:15:06;;;;;;;;;13.75;10.25;;;;;22.17;42.75;101447.97;5069829;27;45437;-71
2023/05/13 08:17:33;;;;;;;;;14.50;11.00;;;;;22.15;42.70;101441.88;5079208;27;45279;-71
2023/05/13 08:19:59;;;;;;;;;10.75;8.75;;;;;22.15;43.01;101444.53;5068840;28;45561;-71
2023/05/13 08:22:25;;;;;;;;;13.75;12.00;;;;;22.15;42.79;101441.88;5066339;27;54701;-71
2023/05/13 08:24:50;;;;;;;;;12.25;12.25;;;;;22.15;43.29;101450.75;5068946;27;46098;-71
2023/05/13 08:27:16;;;;;;;;;12.00;10.25;;;;;22.16;42.99;101457.78;5065328;28;45398;-71
2023/05/13 08:29:41;;;;;;;;;19.00;10.75;;;;;22.17;42.83;101454.16;5058350;28;45371;-71
2023/05/13 08:32:06;;;;;;;;;14.25;10.25;;;;;22.15;43.17;101455.19;5079976;27;73634;-71
2023/05/13 08:34:32;;;;;;;;;11.50;10.75;;;;;22.15;42.91;101457.84;5067963;28;50699;-71
2023/05/13 08:36:57;;;;;;;;;12.25;12.00;;;;;22.13;42.87;101454.44;5072116;27;45487;-71
2023/05/13 08:39:23;;;;;;;;;14.25;12.75;;;;;22.15;43.26;101463.19;5076045;27;45351;-71
2023/05/13 08:41:50;;;;;;;;;16.75;13.75;;;;;22.15;43.25;101456.06;5093496;27;45502;-71
2023/05/13 08:44:17;;;;;;;;;15.75;11.25;;;;;22.15;43.29;101455.19;5070821;28;45402;-71
2023/05/13 08:46:52;;;;;;;;;16.25;14.00;;;;;22.11;43.08;101448.34;5072186;28;45403;-71
2023/05/13 08:49:18;;;;;;;;;16.75;14.00;;;;;22.14;43.17;101458.84;5079118;27;45295;-71
2023/05/13 08:51:45;;;;;;;;;18.50;12.25;;;;;22.15;43.08;101464.06;5078046;27;45399;-71
2023/05/13 08:54:10;;;;;;;;;13.00;12.75;;;;;22.14;42.90;101453.50;5070272;27;46346;-71
2023/05/13 08:56:36;;;;;;;;;14.75;14.75;;;;;22.15;42.70;101461.41;5072306;27;45273;-70
2023/05/13 08:59:01;;;;;;;;;19.00;13.75;;;;;22.14;42.90;101453.50;5067043;28;45476;-71
2023/05/13 09:01:27;;;;;;;;;19.50;15.50;;;;;22.15;43.06;101450.75;5077240;28;45701;-71
2023/05/13 09:03:57;;;;;;;;;12.25;11.75;;;;;22.17;43.27;101447.97;5078793;28;46391;-71
2023/05/13 09:06:23;;;;;;;;;14.50;12.00;;;;;22.16;43.09;101455.09;5077746;28;45418;-71
2023/05/13 09:08:48;;;;;;;;;14.00;13.50;;;;;22.17;42.69;101454.16;5076218;27;45367;-71
2023/05/13 09:11:14;;;;;;;;;13.75;13.75;;;;;22.18;42.78;101452.34;5052145;28;45287;-71
2023/05/13 09:13:42;;;;;;;;;17.75;12.50;;;;;22.20;43.28;101455.75;5074801;28;45605;-71
2023/05/13 09:16:07;;;;;;;;;13.25;12.25;;;;;22.18;43.14;101450.53;5078002;28;45665;-71
2023/05/13 09:18:33;;;;;;;;;16.50;11.75;;;;;22.20;43.25;101453.09;5061875;28;45454;-71
2023/05/13 09:21:25;;;;;;;;;13.25;13.25;;;;;22.22;43.12;101461.84;5065957;28;46034;-71
2023/05/13 09:24:02;;;;;;;;;15.25;13.50;;;;;22.21;42.72;101462.81;5059605;28;46289;-71
2023/05/13 09:26:28;;;;;;;;;14.25;12.25;;;;;22.22;43.03;101466.31;5055408;28;45874;-71
2023/05/13 09:29:27;;;;;;;;;13.25;10.75;;;;;22.24;43.08;101462.63;5056853;28;45336;-71
2023/05/13 09:31:58;;;;;;;;;16.25;15.50;;;;;22.24;42.91;101469.75;5073259;27;45437;-71
2023/05/13 09:34:29;;;;;;;;;18.75;15.00;;;;;22.24;43.11;101470.63;5074399;27;46414;-71
2023/05/13 09:37:04;;;;;;;;;19.50;12.75;;;;;22.23;42.92;101465.38;5066493;28;45640;-71
2023/05/13 09:39:32;;;;;;;;;13.50;12.00;;;;;22.25;42.80;101472.31;5071771;28;45485;-71
2023/05/13 09:41:59;;;;;;;;;14.25;13.50;;;;;22.25;42.81;101471.47;5072601;27;45484;-71
2023/05/13 09:44:25;;;;;;;;;14.50;13.50;;;;;22.24;42.56;101462.63;5074457;28;45472;-71
2023/05/13 09:46:51;;;;;;;;;22.00;15.25;;;;;22.25;42.79;101458.97;5058749;28;67680;-71
2023/05/13 09:49:17;;;;;;;;;14.75;13.75;;;;;22.26;43.29;101468.72;5059471;28;45406;-71
2023/05/13 09:51:44;;;;;;;;;16.00;13.50;;;;;22.24;43.01;101459.06;5077893;27;45573;-71
2023/05/13 09:54:10;;;;;;;;;17.25;13.00;;;;;22.25;43.31;101464.31;5078132;27;46337;-71
2023/05/13 09:56:35;;;;;;;;;18.50;15.25;;;;;22.26;42.83;101463.38;5071069;28;73332;-71
2023/05/13 09:59:04;;;;;;;;;16.00;15.00;;;;;22.25;42.93;101464.31;5049597;28;45460;-71
2023/05/13 10:01:29;;;;;;;;;9.50;9.50;;;;;22.25;42.97;101458.13;5069523;28;72797;-71
2023/05/13 10:03:57;;;;;;;;;22.25;14.75;;;;;22.26;42.66;101463.38;5075743;28;45270;-71
2023/05/13 10:06:24;;;;;;;;;16.75;15.50;;;;;22.26;42.74;101455.38;5076625;27;45320;-71
2023/05/13 10:08:51;;;;;;;;;18.75;15.75;;;;;22.24;42.91;101451.97;5061172;28;45462;-71
2023/05/13 10:11:17;;;;;;;;;16.00;14.50;;;;;22.27;42.88;101462.44;5070788;27;45722;-71
2023/05/13 10:13:48;;;;;;;;;19.00;18.50;;;;;22.26;42.68;101451.88;5077624;27;47294;-71
2023/05/13 10:16:14;;;;;;;;;23.25;17.00;;;;;22.26;42.58;101459.88;5086731;27;45287;-71
2023/05/13 10:18:39;;;;;;;;;17.25;17.00;;;;;22.26;42.77;101460.72;5066877;27;67102;-71
2023/05/13 10:21:05;;;;;;;;;20.00;17.00;;;;;22.26;42.86;101446.53;5073842;28;73020;-71
2023/05/13 10:23:31;;;;;;;;;18.00;16.00;;;;;22.26;42.82;101451.88;5077267;28;47477;-71
2023/05/13 10:25:58;;;;;;;;;16.75;15.75;;;;;22.24;42.93;101451.09;5068282;28;45468;-71
2023/05/13 10:28:24;;;;;;;;;17.75;17.00;;;;;22.25;43.03;101444.81;5068626;28;58001;-71
2023/05/13 10:30:52;;;;;;;;;19.75;17.00;;;;;22.25;42.60;101443.00;5056837;27;45683;-71
2023/05/13 10:33:18;;;;;;;;;17.50;16.75;;;;;22.24;42.80;101445.75;5080095;27;45298;-71
2023/05/13 10:35:56;;;;;;;;;18.25;17.75;;;;;22.25;42.98;101451.00;5076790;27;45254;-71
2023/05/13 10:38:43;;;;;;;;;15.75;15.25;;;;;22.23;42.51;101436.06;5079034;28;45349;-71
2023/05/13 10:41:43;;;;;;;;;18.50;16.50;;;;;22.23;43.31;101444.06;5072519;28;45490;-71
2023/05/13 10:44:09;;;;;;;;;20.25;17.00;;;;;22.23;42.83;101441.38;5079471;27;45419;-71
2023/05/13 10:46:38;;;;;;;;;23.00;18.75;;;;;22.22;42.72;101437.00;5068849;28;72347;-71
2023/05/13 10:49:03;;;;;;;;;19.50;16.75;;;;;22.23;42.94;101428.06;5070948;28;45340;-71
2023/05/13 10:51:28;;;;;;;;;16.00;14.50;;;;;22.23;43.26;101425.38;5070101;27;59883;-71
2023/05/13 10:53:57;;;;;;;;;23.00;19.75;;;;;22.22;42.78;101421.84;5077299;27;46938;-71
2023/05/13 10:56:25;;;;;;;;;11.50;11.50;;;;;22.22;43.06;101423.66;5069200;27;45388;-71
2023/05/13 10:59:01;;;;;;;;;19.50;16.25;;;;;22.22;42.85;101421.84;5074460;27;45666;-71
2023/05/13 11:01:29;;;;;;;;;21.75;16.00;;;;;22.22;42.88;101427.19;5078607;28;45527;-71
2023/05/13 11:03:56;;;;;;;;;16.75;16.25;;;;;22.22;42.75;101415.66;5066151;28;46529;-71
2023/05/13 11:06:23;;;;;;;;;17.00;15.75;;;;;22.22;42.78;101432.50;5073199;27;45297;-71
2023/05/13 11:08:51;;;;;;;;;21.00;19.00;;;;;22.21;42.67;101420.16;5059679;28;45493;-71
2023/05/13 11:11:19;;;;;;;;;20.50;18.25;;;;;22.21;42.86;101425.50;5057061;28;45733;-71
2023/05/13 11:13:44;;;;;;;;;23.25;18.50;;;;;22.19;42.98;101414.06;5070789;27;47582;-71
2023/05/13 11:16:12;;;;;;;;;15.75;15.00;;;;;22.19;43.26;101406.91;5063841;28;45572;-71